sensor_id;sensor_type;location;lat;lon;timestamp;P1;durP1;ratioP1;P2;durP2;ratioP2
11346;SDS011;5728;42.722;23.258;2023-03-01T00:02:20;5.60;;;4.20;;
11346;SDS011;5728;42.722;23.258;2023-03-01T00:04:47;4.23;;;3.47;;
11346;SDS011;5728;42.722;23.258;2023-03-01T00:07:14;5.03;;;3.53;;
11346;SDS011;5728;42.722;23.258;2023-03-01T00:09:42;4.80;;;3.70;;
11346;SDS011;5728;42.722;23.258;2023-03-01T00:12:10;5.40;;;3.80;;
11346;SDS011;5728;42.722;23.258;2023-03-01T00:14:37;4.70;;;3.60;;
11346;SDS011;5728;42.722;23.258;2023-03-01T00:17:04;4.83;;;3.67;;
11346;SDS011;5728;42.722;23.258;2023-03-01T00:19:31;4.93;;;4.23;;
11346;SDS011;5728;42.722;23.258;2023-03-01T00:21:58;4.53;;;3.87;;
11346;SDS011;5728;42.722;23.258;2023-03-01T00:24:25;4.87;;;3.63;;
11346;SDS011;5728;42.722;23.258;2023-03-01T00:26:54;4.50;;;4.07;;
11346;SDS011;5728;42.722;23.258;2023-03-01T00:29:21;3.73;;;3.43;;
11346;SDS011;5728;42.722;23.258;2023-03-01T00:31:48;4.80;;;3.43;;
11346;SDS011;5728;42.722;23.258;2023-03-01T00:34:15;3.20;;;2.90;;
11346;SDS011;5728;42.722;23.258;2023-03-01T00:36:43;3.13;;;2.80;;
11346;SDS011;5728;42.722;23.258;2023-03-01T00:39:11;2.97;;;2.67;;
11346;SDS011;5728;42.722;23.258;2023-03-01T00:41:39;3.20;;;2.90;;
11346;SDS011;5728;42.722;23.258;2023-03-01T00:44:08;3.53;;;3.07;;
11346;SDS011;5728;42.722;23.258;2023-03-01T00:46:35;3.50;;;2.47;;
11346;SDS011;5728;42.722;23.258;2023-03-01T00:49:02;3.30;;;2.80;;
11346;SDS011;5728;42.722;23.258;2023-03-01T00:51:29;3.10;;;2.50;;
11346;SDS011;5728;42.722;23.258;2023-03-01T00:53:57;4.47;;;3.40;;
11346;SDS011;5728;42.722;23.258;2023-03-01T00:56:25;2.80;;;2.60;;
11346;SDS011;5728;42.722;23.258;2023-03-01T00:58:53;3.67;;;2.20;;
11346;SDS011;5728;42.722;23.258;2023-03-01T01:01:22;3.43;;;3.03;;
11346;SDS011;5728;42.722;23.258;2023-03-01T01:03:53;2.70;;;2.50;;
11346;SDS011;5728;42.722;23.258;2023-03-01T01:06:21;3.17;;;2.63;;
11346;SDS011;5728;42.722;23.258;2023-03-01T01:08:49;3.30;;;3.00;;
11346;SDS011;5728;42.722;23.258;2023-03-01T01:11:18;4.07;;;3.00;;
11346;SDS011;5728;42.722;23.258;2023-03-01T01:13:46;2.87;;;2.67;;
11346;SDS011;5728;42.722;23.258;2023-03-01T01:16:14;2.20;;;2.00;;
11346;SDS011;5728;42.722;23.258;2023-03-01T01:18:42;2.37;;;2.17;;
11346;SDS011;5728;42.722;23.258;2023-03-01T01:21:10;4.17;;;3.17;;
11346;SDS011;5728;42.722;23.258;2023-03-01T01:23:39;6.60;;;2.67;;
11346;SDS011;5728;42.722;23.258;2023-03-01T01:26:07;2.77;;;2.50;;
11346;SDS011;5728;42.722;23.258;2023-03-01T01:28:36;2.53;;;2.30;;
11346;SDS011;5728;42.722;23.258;2023-03-01T01:31:03;6.43;;;2.83;;
11346;SDS011;5728;42.722;23.258;2023-03-01T01:33:30;2.63;;;2.37;;
11346;SDS011;5728;42.722;23.258;2023-03-01T01:35:58;2.47;;;2.27;;
11346;SDS011;5728;42.722;23.258;2023-03-01T01:38:25;2.40;;;2.20;;
11346;SDS011;5728;42.722;23.258;2023-03-01T01:40:51;3.43;;;2.03;;
11346;SDS011;5728;42.722;23.258;2023-03-01T01:43:20;3.10;;;2.37;;
11346;SDS011;5728;42.722;23.258;2023-03-01T01:45:49;2.33;;;2.10;;
11346;SDS011;5728;42.722;23.258;2023-03-01T01:48:17;2.43;;;2.20;;
11346;SDS011;5728;42.722;23.258;2023-03-01T01:50:47;3.50;;;2.97;;
11346;SDS011;5728;42.722;23.258;2023-03-01T01:53:21;2.70;;;2.50;;
11346;SDS011;5728;42.722;23.258;2023-03-01T01:55:49;2.77;;;2.57;;
11346;SDS011;5728;42.722;23.258;2023-03-01T01:58:19;4.00;;;2.87;;
11346;SDS011;5728;42.722;23.258;2023-03-01T02:00:48;2.27;;;2.07;;
11346;SDS011;5728;42.722;23.258;2023-03-01T02:03:17;2.23;;;2.03;;
11346;SDS011;5728;42.722;23.258;2023-03-01T02:05:50;2.57;;;2.37;;
11346;SDS011;5728;42.722;23.258;2023-03-01T02:08:23;2.57;;;2.37;;
11346;SDS011;5728;42.722;23.258;2023-03-01T02:10:53;1.90;;;1.80;;
11346;SDS011;5728;42.722;23.258;2023-03-01T02:13:21;2.50;;;2.27;;
11346;SDS011;5728;42.722;23.258;2023-03-01T02:15:48;2.73;;;2.23;;
11346;SDS011;5728;42.722;23.258;2023-03-01T02:18:16;2.50;;;2.30;;
11346;SDS011;5728;42.722;23.258;2023-03-01T02:20:49;2.40;;;2.20;;
11346;SDS011;5728;42.722;23.258;2023-03-01T02:23:31;3.90;;;3.10;;
11346;SDS011;5728;42.722;23.258;2023-03-01T02:26:02;3.57;;;2.70;;
11346;SDS011;5728;42.722;23.258;2023-03-01T02:28:35;3.50;;;2.37;;
11346;SDS011;5728;42.722;23.258;2023-03-01T02:31:04;3.70;;;3.27;;
11346;SDS011;5728;42.722;23.258;2023-03-01T02:33:50;4.27;;;3.40;;
11346;SDS011;5728;42.722;23.258;2023-03-01T02:36:20;6.07;;;3.73;;
11346;SDS011;5728;42.722;23.258;2023-03-01T02:38:50;6.93;;;3.73;;
11346;SDS011;5728;42.722;23.258;2023-03-01T02:41:19;4.20;;;3.63;;
11346;SDS011;5728;42.722;23.258;2023-03-01T02:43:49;3.50;;;2.90;;
11346;SDS011;5728;42.722;23.258;2023-03-01T02:46:17;3.87;;;3.30;;
11346;SDS011;5728;42.722;23.258;2023-03-01T02:48:46;3.47;;;3.17;;
11346;SDS011;5728;42.722;23.258;2023-03-01T02:51:21;3.73;;;3.43;;
11346;SDS011;5728;42.722;23.258;2023-03-01T02:54:10;3.73;;;3.37;;
11346;SDS011;5728;42.722;23.258;2023-03-01T02:56:44;3.50;;;3.07;;
11346;SDS011;5728;42.722;23.258;2023-03-01T02:59:14;3.20;;;2.87;;
11346;SDS011;5728;42.722;23.258;2023-03-01T03:01:42;3.50;;;3.20;;
11346;SDS011;5728;42.722;23.258;2023-03-01T03:04:10;2.97;;;2.67;;
11346;SDS011;5728;42.722;23.258;2023-03-01T03:06:41;3.87;;;3.43;;
11346;SDS011;5728;42.722;23.258;2023-03-01T03:09:09;3.30;;;3.00;;
11346;SDS011;5728;42.722;23.258;2023-03-01T03:11:36;5.83;;;3.43;;
11346;SDS011;5728;42.722;23.258;2023-03-01T03:14:04;6.07;;;4.50;;
11346;SDS011;5728;42.722;23.258;2023-03-01T03:16:39;6.80;;;4.63;;
11346;SDS011;5728;42.722;23.258;2023-03-01T03:19:06;6.97;;;4.23;;
11346;SDS011;5728;42.722;23.258;2023-03-01T03:21:33;7.00;;;4.20;;
11346;SDS011;5728;42.722;23.258;2023-03-01T03:24:00;4.07;;;3.20;;
11346;SDS011;5728;42.722;23.258;2023-03-01T03:26:27;4.13;;;3.27;;
11346;SDS011;5728;42.722;23.258;2023-03-01T03:28:53;4.07;;;3.67;;
11346;SDS011;5728;42.722;23.258;2023-03-01T03:31:20;3.70;;;2.93;;
11346;SDS011;5728;42.722;23.258;2023-03-01T03:33:48;3.33;;;3.03;;
11346;SDS011;5728;42.722;23.258;2023-03-01T03:36:16;4.63;;;3.57;;
11346;SDS011;5728;42.722;23.258;2023-03-01T03:38:44;3.60;;;3.30;;
11346;SDS011;5728;42.722;23.258;2023-03-01T03:41:11;3.60;;;2.60;;
11346;SDS011;5728;42.722;23.258;2023-03-01T03:43:39;3.50;;;2.97;;
11346;SDS011;5728;42.722;23.258;2023-03-01T03:46:08;3.27;;;2.70;;
11346;SDS011;5728;42.722;23.258;2023-03-01T03:48:54;2.97;;;2.50;;
11346;SDS011;5728;42.722;23.258;2023-03-01T03:51:20;2.53;;;2.33;;
11346;SDS011;5728;42.722;23.258;2023-03-01T03:53:48;2.67;;;2.47;;
11346;SDS011;5728;42.722;23.258;2023-03-01T03:56:15;3.93;;;2.53;;
11346;SDS011;5728;42.722;23.258;2023-03-01T03:58:41;2.77;;;2.57;;
11346;SDS011;5728;42.722;23.258;2023-03-01T04:01:26;4.90;;;2.97;;
11346;SDS011;5728;42.722;23.258;2023-03-01T04:03:55;2.70;;;2.50;;
11346;SDS011;5728;42.722;23.258;2023-03-01T04:06:21;2.83;;;2.63;;
11346;SDS011;5728;42.722;23.258;2023-03-01T04:08:48;3.47;;;2.67;;
11346;SDS011;5728;42.722;23.258;2023-03-01T04:11:16;2.70;;;2.50;;
11346;SDS011;5728;42.722;23.258;2023-03-01T04:13:55;2.77;;;2.50;;
11346;SDS011;5728;42.722;23.258;2023-03-01T04:16:23;2.80;;;2.60;;
11346;SDS011;5728;42.722;23.258;2023-03-01T04:18:50;2.50;;;2.30;;
11346;SDS011;5728;42.722;23.258;2023-03-01T04:21:19;2.40;;;2.20;;
11346;SDS011;5728;42.722;23.258;2023-03-01T04:23:47;4.20;;;2.60;;
11346;SDS011;5728;42.722;23.258;2023-03-01T04:26:17;3.77;;;2.10;;
11346;SDS011;5728;42.722;23.258;2023-03-01T04:28:44;2.37;;;2.07;;
11346;SDS011;5728;42.722;23.258;2023-03-01T04:31:14;2.00;;;1.80;;
11346;SDS011;5728;42.722;23.258;2023-03-01T04:33:43;2.77;;;2.20;;
11346;SDS011;5728;42.722;23.258;2023-03-01T04:36:12;2.15;;;1.95;;
11346;SDS011;5728;42.722;23.258;2023-03-01T04:38:42;2.00;;;1.80;;
11346;SDS011;5728;42.722;23.258;2023-03-01T04:41:12;2.57;;;2.23;;
11346;SDS011;5728;42.722;23.258;2023-03-01T04:43:40;5.23;;;2.27;;
11346;SDS011;5728;42.722;23.258;2023-03-01T04:46:07;2.20;;;1.70;;
11346;SDS011;5728;42.722;23.258;2023-03-01T04:48:36;2.20;;;1.93;;
11346;SDS011;5728;42.722;23.258;2023-03-01T04:51:04;2.63;;;1.70;;
11346;SDS011;5728;42.722;23.258;2023-03-01T04:53:32;1.87;;;1.57;;
11346;SDS011;5728;42.722;23.258;2023-03-01T04:56:02;2.03;;;1.83;;
11346;SDS011;5728;42.722;23.258;2023-03-01T04:58:29;2.00;;;1.70;;
11346;SDS011;5728;42.722;23.258;2023-03-01T05:00:56;3.17;;;1.90;;
11346;SDS011;5728;42.722;23.258;2023-03-01T05:03:23;1.90;;;1.60;;
11346;SDS011;5728;42.722;23.258;2023-03-01T05:05:51;2.83;;;2.00;;
11346;SDS011;5728;42.722;23.258;2023-03-01T05:08:18;1.93;;;1.73;;
11346;SDS011;5728;42.722;23.258;2023-03-01T05:10:46;3.20;;;1.83;;
11346;SDS011;5728;42.722;23.258;2023-03-01T05:13:16;5.63;;;2.43;;
11346;SDS011;5728;42.722;23.258;2023-03-01T05:15:47;3.50;;;2.20;;
11346;SDS011;5728;42.722;23.258;2023-03-01T05:18:15;3.87;;;3.00;;
11346;SDS011;5728;42.722;23.258;2023-03-01T05:20:41;4.83;;;2.90;;
11346;SDS011;5728;42.722;23.258;2023-03-01T05:23:09;5.53;;;3.90;;
11346;SDS011;5728;42.722;23.258;2023-03-01T05:25:36;7.27;;;5.90;;
11346;SDS011;5728;42.722;23.258;2023-03-01T05:28:05;9.07;;;6.20;;
11346;SDS011;5728;42.722;23.258;2023-03-01T05:30:36;6.93;;;5.30;;
11346;SDS011;5728;42.722;23.258;2023-03-01T05:33:04;4.13;;;3.70;;
11346;SDS011;5728;42.722;23.258;2023-03-01T05:35:38;5.07;;;4.00;;
11346;SDS011;5728;42.722;23.258;2023-03-01T05:38:05;6.43;;;4.53;;
11346;SDS011;5728;42.722;23.258;2023-03-01T05:40:32;4.03;;;3.57;;
11346;SDS011;5728;42.722;23.258;2023-03-01T05:43:00;5.13;;;4.03;;
11346;SDS011;5728;42.722;23.258;2023-03-01T05:45:27;6.03;;;4.17;;
11346;SDS011;5728;42.722;23.258;2023-03-01T05:47:55;5.57;;;4.27;;
11346;SDS011;5728;42.722;23.258;2023-03-01T05:50:22;6.17;;;4.33;;
11346;SDS011;5728;42.722;23.258;2023-03-01T05:52:50;6.07;;;4.70;;
11346;SDS011;5728;42.722;23.258;2023-03-01T05:55:19;9.50;;;4.73;;
11346;SDS011;5728;42.722;23.258;2023-03-01T05:57:47;5.83;;;5.00;;
11346;SDS011;5728;42.722;23.258;2023-03-01T06:00:15;7.20;;;4.90;;
11346;SDS011;5728;42.722;23.258;2023-03-01T06:02:43;6.67;;;5.10;;
11346;SDS011;5728;42.722;23.258;2023-03-01T06:05:12;9.70;;;5.80;;
11346;SDS011;5728;42.722;23.258;2023-03-01T06:07:39;7.53;;;5.27;;
11346;SDS011;5728;42.722;23.258;2023-03-01T06:10:08;5.53;;;4.77;;
11346;SDS011;5728;42.722;23.258;2023-03-01T06:12:37;10.10;;;4.50;;
11346;SDS011;5728;42.722;23.258;2023-03-01T06:15:05;8.53;;;4.37;;
11346;SDS011;5728;42.722;23.258;2023-03-01T06:17:35;7.73;;;4.30;;
11346;SDS011;5728;42.722;23.258;2023-03-01T06:20:03;9.57;;;5.70;;
11346;SDS011;5728;42.722;23.258;2023-03-01T06:22:32;6.87;;;4.87;;
11346;SDS011;5728;42.722;23.258;2023-03-01T06:24:58;5.27;;;4.67;;
11346;SDS011;5728;42.722;23.258;2023-03-01T06:27:25;6.23;;;5.43;;
11346;SDS011;5728;42.722;23.258;2023-03-01T06:29:52;6.70;;;5.07;;
11346;SDS011;5728;42.722;23.258;2023-03-01T06:32:19;5.83;;;4.37;;
11346;SDS011;5728;42.722;23.258;2023-03-01T06:34:45;8.47;;;5.23;;
11346;SDS011;5728;42.722;23.258;2023-03-01T06:37:12;6.13;;;4.63;;
11346;SDS011;5728;42.722;23.258;2023-03-01T06:39:40;5.60;;;4.13;;
11346;SDS011;5728;42.722;23.258;2023-03-01T06:42:07;5.17;;;4.23;;
11346;SDS011;5728;42.722;23.258;2023-03-01T06:44:35;6.73;;;3.77;;
11346;SDS011;5728;42.722;23.258;2023-03-01T06:47:01;5.80;;;4.23;;
11346;SDS011;5728;42.722;23.258;2023-03-01T06:49:28;7.57;;;4.07;;
11346;SDS011;5728;42.722;23.258;2023-03-01T06:51:55;6.17;;;3.57;;
11346;SDS011;5728;42.722;23.258;2023-03-01T06:54:22;6.77;;;3.90;;
11346;SDS011;5728;42.722;23.258;2023-03-01T06:56:50;4.00;;;3.60;;
11346;SDS011;5728;42.722;23.258;2023-03-01T06:59:18;18.07;;;10.30;;
11346;SDS011;5728;42.722;23.258;2023-03-01T07:01:45;10.33;;;6.80;;
11346;SDS011;5728;42.722;23.258;2023-03-01T07:04:12;6.77;;;3.73;;
11346;SDS011;5728;42.722;23.258;2023-03-01T07:06:39;5.73;;;3.87;;
11346;SDS011;5728;42.722;23.258;2023-03-01T07:09:06;4.00;;;3.20;;
11346;SDS011;5728;42.722;23.258;2023-03-01T07:11:33;13.23;;;3.27;;
11346;SDS011;5728;42.722;23.258;2023-03-01T07:14:01;3.57;;;3.20;;
11346;SDS011;5728;42.722;23.258;2023-03-01T07:16:28;4.23;;;3.57;;
11346;SDS011;5728;42.722;23.258;2023-03-01T07:18:55;4.47;;;3.83;;
11346;SDS011;5728;42.722;23.258;2023-03-01T07:21:21;3.33;;;3.03;;
11346;SDS011;5728;42.722;23.258;2023-03-01T07:23:48;4.30;;;3.33;;
11346;SDS011;5728;42.722;23.258;2023-03-01T07:26:15;7.17;;;2.80;;
11346;SDS011;5728;42.722;23.258;2023-03-01T07:28:42;6.60;;;2.83;;
11346;SDS011;5728;42.722;23.258;2023-03-01T07:31:10;3.33;;;3.00;;
11346;SDS011;5728;42.722;23.258;2023-03-01T07:33:36;4.60;;;3.67;;
11346;SDS011;5728;42.722;23.258;2023-03-01T07:36:03;4.57;;;2.93;;
11346;SDS011;5728;42.722;23.258;2023-03-01T07:38:31;5.20;;;3.87;;
11346;SDS011;5728;42.722;23.258;2023-03-01T07:40:59;5.60;;;3.67;;
11346;SDS011;5728;42.722;23.258;2023-03-01T07:43:27;3.80;;;3.10;;
11346;SDS011;5728;42.722;23.258;2023-03-01T07:45:54;8.27;;;3.60;;
11346;SDS011;5728;42.722;23.258;2023-03-01T07:48:22;5.73;;;3.83;;
11346;SDS011;5728;42.722;23.258;2023-03-01T07:50:49;7.27;;;3.20;;
11346;SDS011;5728;42.722;23.258;2023-03-01T07:53:15;5.37;;;3.37;;
11346;SDS011;5728;42.722;23.258;2023-03-01T07:55:42;7.13;;;3.53;;
11346;SDS011;5728;42.722;23.258;2023-03-01T07:58:09;8.00;;;3.60;;
11346;SDS011;5728;42.722;23.258;2023-03-01T08:00:36;5.57;;;3.57;;
11346;SDS011;5728;42.722;23.258;2023-03-01T08:03:03;3.87;;;2.90;;
11346;SDS011;5728;42.722;23.258;2023-03-01T08:05:31;3.17;;;2.77;;
11346;SDS011;5728;42.722;23.258;2023-03-01T08:07:59;6.87;;;3.60;;
11346;SDS011;5728;42.722;23.258;2023-03-01T08:10:25;8.27;;;3.77;;
11346;SDS011;5728;42.722;23.258;2023-03-01T08:12:52;4.33;;;3.23;;
11346;SDS011;5728;42.722;23.258;2023-03-01T08:15:19;4.30;;;3.07;;
11346;SDS011;5728;42.722;23.258;2023-03-01T08:17:47;3.23;;;2.73;;
11346;SDS011;5728;42.722;23.258;2023-03-01T08:20:15;5.07;;;3.10;;
11346;SDS011;5728;42.722;23.258;2023-03-01T08:22:43;3.47;;;2.57;;
11346;SDS011;5728;42.722;23.258;2023-03-01T08:25:10;2.60;;;2.40;;
11346;SDS011;5728;42.722;23.258;2023-03-01T08:27:37;2.70;;;2.50;;
11346;SDS011;5728;42.722;23.258;2023-03-01T08:30:04;5.57;;;2.70;;
11346;SDS011;5728;42.722;23.258;2023-03-01T08:32:35;4.37;;;2.50;;
11346;SDS011;5728;42.722;23.258;2023-03-01T08:35:03;5.53;;;2.60;;
11346;SDS011;5728;42.722;23.258;2023-03-01T08:37:30;9.13;;;2.80;;
11346;SDS011;5728;42.722;23.258;2023-03-01T08:39:59;3.53;;;2.13;;
11346;SDS011;5728;42.722;23.258;2023-03-01T08:42:26;3.07;;;2.70;;
11346;SDS011;5728;42.722;23.258;2023-03-01T08:44:53;6.20;;;3.13;;
11346;SDS011;5728;42.722;23.258;2023-03-01T08:47:19;5.77;;;2.70;;
11346;SDS011;5728;42.722;23.258;2023-03-01T08:49:46;3.73;;;3.27;;
11346;SDS011;5728;42.722;23.258;2023-03-01T08:52:13;5.23;;;3.63;;
11346;SDS011;5728;42.722;23.258;2023-03-01T08:54:40;3.30;;;2.97;;
11346;SDS011;5728;42.722;23.258;2023-03-01T08:57:08;4.87;;;3.20;;
11346;SDS011;5728;42.722;23.258;2023-03-01T08:59:35;5.57;;;3.47;;
11346;SDS011;5728;42.722;23.258;2023-03-01T09:02:02;6.80;;;4.13;;
11346;SDS011;5728;42.722;23.258;2023-03-01T09:04:29;5.43;;;3.50;;
11346;SDS011;5728;42.722;23.258;2023-03-01T09:06:56;4.77;;;3.43;;
11346;SDS011;5728;42.722;23.258;2023-03-01T09:09:22;4.93;;;3.97;;
11346;SDS011;5728;42.722;23.258;2023-03-01T09:11:49;3.30;;;2.90;;
11346;SDS011;5728;42.722;23.258;2023-03-01T09:14:17;3.00;;;2.70;;
11346;SDS011;5728;42.722;23.258;2023-03-01T09:16:44;2.73;;;2.30;;
11346;SDS011;5728;42.722;23.258;2023-03-01T09:19:11;3.10;;;2.80;;
11346;SDS011;5728;42.722;23.258;2023-03-01T09:21:39;2.47;;;2.27;;
11346;SDS011;5728;42.722;23.258;2023-03-01T09:24:06;3.13;;;2.70;;
11346;SDS011;5728;42.722;23.258;2023-03-01T09:26:38;3.00;;;2.67;;
11346;SDS011;5728;42.722;23.258;2023-03-01T09:29:04;2.60;;;2.33;;
11346;SDS011;5728;42.722;23.258;2023-03-01T09:31:33;3.33;;;2.50;;
11346;SDS011;5728;42.722;23.258;2023-03-01T09:33:59;4.17;;;2.87;;
11346;SDS011;5728;42.722;23.258;2023-03-01T09:36:26;3.13;;;2.77;;
11346;SDS011;5728;42.722;23.258;2023-03-01T09:38:53;2.27;;;2.07;;
11346;SDS011;5728;42.722;23.258;2023-03-01T09:41:25;4.83;;;2.50;;
11346;SDS011;5728;42.722;23.258;2023-03-01T09:44:04;7.63;;;2.90;;
11346;SDS011;5728;42.722;23.258;2023-03-01T09:46:41;2.47;;;2.20;;
11346;SDS011;5728;42.722;23.258;2023-03-01T09:49:10;2.73;;;2.30;;
11346;SDS011;5728;42.722;23.258;2023-03-01T09:51:42;5.73;;;3.37;;
11346;SDS011;5728;42.722;23.258;2023-03-01T09:54:14;2.30;;;2.10;;
11346;SDS011;5728;42.722;23.258;2023-03-01T09:56:42;2.30;;;2.10;;
11346;SDS011;5728;42.722;23.258;2023-03-01T09:59:17;2.80;;;2.27;;
11346;SDS011;5728;42.722;23.258;2023-03-01T10:01:54;2.40;;;1.90;;
11346;SDS011;5728;42.722;23.258;2023-03-01T10:04:30;2.47;;;2.03;;
11346;SDS011;5728;42.722;23.258;2023-03-01T10:07:17;2.50;;;2.03;;
11346;SDS011;5728;42.722;23.258;2023-03-01T10:09:52;3.40;;;1.80;;
11346;SDS011;5728;42.722;23.258;2023-03-01T10:12:20;4.53;;;2.30;;
11346;SDS011;5728;42.722;23.258;2023-03-01T10:14:52;3.73;;;1.97;;
11346;SDS011;5728;42.722;23.258;2023-03-01T10:17:26;2.80;;;2.07;;
11346;SDS011;5728;42.722;23.258;2023-03-01T10:19:59;2.43;;;2.00;;
11346;SDS011;5728;42.722;23.258;2023-03-01T10:22:41;3.10;;;2.30;;
11346;SDS011;5728;42.722;23.258;2023-03-01T10:25:12;1.93;;;1.67;;
11346;SDS011;5728;42.722;23.258;2023-03-01T10:27:43;2.80;;;2.10;;
11346;SDS011;5728;42.722;23.258;2023-03-01T10:30:17;2.80;;;2.43;;
11346;SDS011;5728;42.722;23.258;2023-03-01T10:32:49;3.70;;;2.80;;
11346;SDS011;5728;42.722;23.258;2023-03-01T10:35:20;2.30;;;2.10;;
11346;SDS011;5728;42.722;23.258;2023-03-01T10:37:57;2.20;;;1.90;;
11346;SDS011;5728;42.722;23.258;2023-03-01T10:40:28;3.37;;;3.03;;
11346;SDS011;5728;42.722;23.258;2023-03-01T10:42:57;6.13;;;2.47;;
11346;SDS011;5728;42.722;23.258;2023-03-01T10:45:32;2.87;;;2.60;;
11346;SDS011;5728;42.722;23.258;2023-03-01T10:48:06;2.60;;;1.90;;
11346;SDS011;5728;42.722;23.258;2023-03-01T10:50:38;3.70;;;2.43;;
11346;SDS011;5728;42.722;23.258;2023-03-01T10:53:15;2.67;;;2.30;;
11346;SDS011;5728;42.722;23.258;2023-03-01T10:55:48;4.00;;;2.67;;
11346;SDS011;5728;42.722;23.258;2023-03-01T10:58:23;2.60;;;2.00;;
11346;SDS011;5728;42.722;23.258;2023-03-01T11:00:51;2.93;;;1.83;;
11346;SDS011;5728;42.722;23.258;2023-03-01T11:03:23;6.80;;;2.13;;
11346;SDS011;5728;42.722;23.258;2023-03-01T11:05:56;1.93;;;1.50;;
11346;SDS011;5728;42.722;23.258;2023-03-01T11:11:16;1.67;;;1.43;;
11346;SDS011;5728;42.722;23.258;2023-03-01T11:13:53;7.57;;;1.70;;
11346;SDS011;5728;42.722;23.258;2023-03-01T11:16:26;1.93;;;1.63;;
11346;SDS011;5728;42.722;23.258;2023-03-01T11:19:15;1.60;;;1.50;;
11346;SDS011;5728;42.722;23.258;2023-03-01T11:21:54;2.30;;;2.07;;
11346;SDS011;5728;42.722;23.258;2023-03-01T11:24:26;4.67;;;2.00;;
11346;SDS011;5728;42.722;23.258;2023-03-01T11:26:59;5.90;;;1.83;;
11346;SDS011;5728;42.722;23.258;2023-03-01T11:29:30;4.43;;;2.60;;
11346;SDS011;5728;42.722;23.258;2023-03-01T11:32:03;2.50;;;1.90;;
11346;SDS011;5728;42.722;23.258;2023-03-01T11:34:38;3.80;;;2.40;;
11346;SDS011;5728;42.722;23.258;2023-03-01T11:37:12;2.33;;;1.87;;
11346;SDS011;5728;42.722;23.258;2023-03-01T11:39:51;3.87;;;1.93;;
11346;SDS011;5728;42.722;23.258;2023-03-01T11:42:25;6.90;;;2.10;;
11346;SDS011;5728;42.722;23.258;2023-03-01T11:44:59;3.03;;;1.70;;
11346;SDS011;5728;42.722;23.258;2023-03-01T11:47:34;3.40;;;2.23;;
11346;SDS011;5728;42.722;23.258;2023-03-01T11:50:17;2.13;;;1.67;;
11346;SDS011;5728;42.722;23.258;2023-03-01T11:52:56;2.00;;;1.80;;
11346;SDS011;5728;42.722;23.258;2023-03-01T11:55:36;3.10;;;2.03;;
11346;SDS011;5728;42.722;23.258;2023-03-01T11:58:22;5.50;;;1.93;;
11346;SDS011;5728;42.722;23.258;2023-03-01T12:01:14;4.50;;;2.57;;
11346;SDS011;5728;42.722;23.258;2023-03-01T12:04:06;2.40;;;2.00;;
11346;SDS011;5728;42.722;23.258;2023-03-01T12:06:49;4.40;;;1.97;;
11346;SDS011;5728;42.722;23.258;2023-03-01T12:09:23;3.73;;;2.27;;
11346;SDS011;5728;42.722;23.258;2023-03-01T12:15:09;2.33;;;2.13;;
11346;SDS011;5728;42.722;23.258;2023-03-01T12:17:55;2.43;;;2.20;;
11346;SDS011;5728;42.722;23.258;2023-03-01T12:20:35;2.40;;;2.00;;
11346;SDS011;5728;42.722;23.258;2023-03-01T12:26:12;4.37;;;2.23;;
11346;SDS011;5728;42.722;23.258;2023-03-01T12:28:57;2.43;;;2.10;;
11346;SDS011;5728;42.722;23.258;2023-03-01T12:31:49;4.03;;;2.63;;
11346;SDS011;5728;42.722;23.258;2023-03-01T12:37:34;3.07;;;2.43;;
11346;SDS011;5728;42.722;23.258;2023-03-01T12:43:19;4.60;;;2.70;;
11346;SDS011;5728;42.722;23.258;2023-03-01T12:48:47;3.50;;;2.80;;
11346;SDS011;5728;42.722;23.258;2023-03-01T12:51:24;3.73;;;2.53;;
11346;SDS011;5728;42.722;23.258;2023-03-01T12:53:55;4.40;;;3.03;;
11346;SDS011;5728;42.722;23.258;2023-03-01T12:56:25;5.90;;;3.17;;
11346;SDS011;5728;42.722;23.258;2023-03-01T12:58:59;3.47;;;2.33;;
11346;SDS011;5728;42.722;23.258;2023-03-01T13:01:35;4.23;;;2.80;;
11346;SDS011;5728;42.722;23.258;2023-03-01T13:04:16;5.53;;;2.70;;
11346;SDS011;5728;42.722;23.258;2023-03-01T13:06:52;6.27;;;3.70;;
11346;SDS011;5728;42.722;23.258;2023-03-01T13:09:25;4.47;;;3.23;;
11346;SDS011;5728;42.722;23.258;2023-03-01T13:12:01;3.67;;;2.83;;
11346;SDS011;5728;42.722;23.258;2023-03-01T13:14:39;3.17;;;2.57;;
11346;SDS011;5728;42.722;23.258;2023-03-01T13:17:30;3.20;;;2.70;;
11346;SDS011;5728;42.722;23.258;2023-03-01T13:19:59;3.33;;;2.83;;
11346;SDS011;5728;42.722;23.258;2023-03-01T13:22:27;2.80;;;2.50;;
11346;SDS011;5728;42.722;23.258;2023-03-01T13:25:02;3.77;;;3.07;;
11346;SDS011;5728;42.722;23.258;2023-03-01T13:27:39;5.90;;;3.50;;
11346;SDS011;5728;42.722;23.258;2023-03-01T13:30:37;2.73;;;2.37;;
11346;SDS011;5728;42.722;23.258;2023-03-01T13:36:06;3.57;;;3.03;;
11346;SDS011;5728;42.722;23.258;2023-03-01T13:38:37;2.67;;;2.47;;
11346;SDS011;5728;42.722;23.258;2023-03-01T13:41:06;4.67;;;3.17;;
11346;SDS011;5728;42.722;23.258;2023-03-01T13:43:34;3.27;;;2.97;;
11346;SDS011;5728;42.722;23.258;2023-03-01T13:46:08;4.03;;;2.67;;
11346;SDS011;5728;42.722;23.258;2023-03-01T13:48:38;5.27;;;3.90;;
11346;SDS011;5728;42.722;23.258;2023-03-01T13:51:07;3.23;;;2.93;;
11346;SDS011;5728;42.722;23.258;2023-03-01T13:53:36;3.43;;;3.10;;
11346;SDS011;5728;42.722;23.258;2023-03-01T13:56:07;15.07;;;3.03;;
11346;SDS011;5728;42.722;23.258;2023-03-01T13:58:44;8.53;;;3.43;;
11346;SDS011;5728;42.722;23.258;2023-03-01T14:01:22;4.20;;;3.00;;
11346;SDS011;5728;42.722;23.258;2023-03-01T14:03:51;3.97;;;3.47;;
11346;SDS011;5728;42.722;23.258;2023-03-01T14:06:20;6.40;;;3.57;;
11346;SDS011;5728;42.722;23.258;2023-03-01T14:08:49;3.37;;;3.07;;
11346;SDS011;5728;42.722;23.258;2023-03-01T14:11:25;2.70;;;2.50;;
11346;SDS011;5728;42.722;23.258;2023-03-01T14:14:38;6.13;;;3.70;;
11346;SDS011;5728;42.722;23.258;2023-03-01T14:20:09;4.30;;;3.00;;
11346;SDS011;5728;42.722;23.258;2023-03-01T14:22:39;3.13;;;2.70;;
11346;SDS011;5728;42.722;23.258;2023-03-01T14:25:17;3.27;;;2.73;;
11346;SDS011;5728;42.722;23.258;2023-03-01T14:27:50;5.53;;;3.23;;
11346;SDS011;5728;42.722;23.258;2023-03-01T14:30:21;7.60;;;3.90;;
11346;SDS011;5728;42.722;23.258;2023-03-01T14:32:53;5.47;;;3.30;;
11346;SDS011;5728;42.722;23.258;2023-03-01T14:35:22;6.50;;;3.63;;
11346;SDS011;5728;42.722;23.258;2023-03-01T14:37:50;4.07;;;3.07;;
11346;SDS011;5728;42.722;23.258;2023-03-01T14:40:21;5.33;;;3.20;;
11346;SDS011;5728;42.722;23.258;2023-03-01T14:42:50;6.00;;;3.70;;
11346;SDS011;5728;42.722;23.258;2023-03-01T14:45:19;3.13;;;2.83;;
11346;SDS011;5728;42.722;23.258;2023-03-01T14:47:46;5.13;;;3.40;;
11346;SDS011;5728;42.722;23.258;2023-03-01T14:50:21;3.57;;;3.10;;
11346;SDS011;5728;42.722;23.258;2023-03-01T14:52:52;10.27;;;3.83;;
11346;SDS011;5728;42.722;23.258;2023-03-01T14:55:21;5.97;;;3.43;;
11346;SDS011;5728;42.722;23.258;2023-03-01T14:57:52;4.07;;;2.90;;
11346;SDS011;5728;42.722;23.258;2023-03-01T15:00:20;5.93;;;3.80;;
11346;SDS011;5728;42.722;23.258;2023-03-01T15:02:48;4.90;;;3.37;;
11346;SDS011;5728;42.722;23.258;2023-03-01T15:05:18;6.70;;;3.60;;
11346;SDS011;5728;42.722;23.258;2023-03-01T15:07:49;5.17;;;3.43;;
11346;SDS011;5728;42.722;23.258;2023-03-01T15:10:19;4.67;;;3.07;;
11346;SDS011;5728;42.722;23.258;2023-03-01T15:12:48;3.23;;;2.60;;
11346;SDS011;5728;42.722;23.258;2023-03-01T15:15:22;3.67;;;2.83;;
11346;SDS011;5728;42.722;23.258;2023-03-01T15:17:58;4.10;;;3.23;;
11346;SDS011;5728;42.722;23.258;2023-03-01T15:20:28;5.43;;;3.13;;
11346;SDS011;5728;42.722;23.258;2023-03-01T15:23:00;5.60;;;2.90;;
11346;SDS011;5728;42.722;23.258;2023-03-01T15:25:28;4.10;;;3.00;;
11346;SDS011;5728;42.722;23.258;2023-03-01T15:27:57;5.73;;;2.70;;
11346;SDS011;5728;42.722;23.258;2023-03-01T15:30:27;10.87;;;3.57;;
11346;SDS011;5728;42.722;23.258;2023-03-01T15:33:18;7.90;;;3.63;;